sensor_id;sensor_type;location;lat;lon;timestamp;temperature;humidity
15364;DHT22;7781;49.690;6.472;2023-12-20T00:00:18;5.80;99.90
15364;DHT22;7781;49.690;6.472;2023-12-20T00:02:47;5.80;99.90
15364;DHT22;7781;49.690;6.472;2023-12-20T00:05:15;5.80;99.90
15364;DHT22;7781;49.690;6.472;2023-12-20T00:07:44;5.80;99.90
15364;DHT22;7781;49.690;6.472;2023-12-20T00:10:13;5.80;99.90
15364;DHT22;7781;49.690;6.472;2023-12-20T00:12:44;5.90;99.90
15364;DHT22;7781;49.690;6.472;2023-12-20T00:15:13;5.90;99.90
15364;DHT22;7781;49.690;6.472;2023-12-20T00:17:44;5.90;99.90
15364;DHT22;7781;49.690;6.472;2023-12-20T00:20:13;5.80;99.90
15364;DHT22;7781;49.690;6.472;2023-12-20T00:22:41;5.80;99.90
15364;DHT22;7781;49.690;6.472;2023-12-20T00:25:10;5.80;99.90
15364;DHT22;7781;49.690;6.472;2023-12-20T00:27:38;5.80;99.90
15364;DHT22;7781;49.690;6.472;2023-12-20T00:30:11;5.80;99.90
15364;DHT22;7781;49.690;6.472;2023-12-20T00:32:39;5.80;99.90
15364;DHT22;7781;49.690;6.472;2023-12-20T00:35:13;5.80;99.90
15364;DHT22;7781;49.690;6.472;2023-12-20T00:37:44;5.80;99.90
15364;DHT22;7781;49.690;6.472;2023-12-20T00:40:13;5.80;99.90
15364;DHT22;7781;49.690;6.472;2023-12-20T00:42:41;5.80;99.90
15364;DHT22;7781;49.690;6.472;2023-12-20T00:45:13;5.80;99.90
15364;DHT22;7781;49.690;6.472;2023-12-20T00:47:42;5.80;99.90
15364;DHT22;7781;49.690;6.472;2023-12-20T00:50:11;5.80;99.90
15364;DHT22;7781;49.690;6.472;2023-12-20T00:52:40;5.80;99.90
15364;DHT22;7781;49.690;6.472;2023-12-20T00:55:10;5.80;99.90
15364;DHT22;7781;49.690;6.472;2023-12-20T00:57:39;5.80;99.90
15364;DHT22;7781;49.690;6.472;2023-12-20T01:00:09;5.90;99.90
15364;DHT22;7781;49.690;6.472;2023-12-20T01:02:41;5.80;99.90
15364;DHT22;7781;49.690;6.472;2023-12-20T01:05:10;5.80;99.90
15364;DHT22;7781;49.690;6.472;2023-12-20T01:07:38;5.80;99.90
15364;DHT22;7781;49.690;6.472;2023-12-20T01:10:08;5.80;99.90
15364;DHT22;7781;49.690;6.472;2023-12-20T01:12:37;5.80;99.90
15364;DHT22;7781;49.690;6.472;2023-12-20T01:15:06;5.80;99.90
15364;DHT22;7781;49.690;6.472;2023-12-20T01:17:34;5.80;99.90
15364;DHT22;7781;49.690;6.472;2023-12-20T01:20:06;5.90;99.90
15364;DHT22;7781;49.690;6.472;2023-12-20T01:22:36;5.80;99.90
15364;DHT22;7781;49.690;6.472;2023-12-20T01:25:09;5.80;99.90
15364;DHT22;7781;49.690;6.472;2023-12-20T01:27:38;5.80;99.90
15364;DHT22;7781;49.690;6.472;2023-12-20T01:30:07;5.80;99.90
15364;DHT22;7781;49.690;6.472;2023-12-20T01:32:37;5.80;99.90
15364;DHT22;7781;49.690;6.472;2023-12-20T01:35:10;5.80;99.90
15364;DHT22;7781;49.690;6.472;2023-12-20T01:37:41;5.80;99.90
15364;DHT22;7781;49.690;6.472;2023-12-20T01:40:11;5.80;99.90
15364;DHT22;7781;49.690;6.472;2023-12-20T01:42:39;5.80;99.90
15364;DHT22;7781;49.690;6.472;2023-12-20T01:45:08;5.80;99.90
15364;DHT22;7781;49.690;6.472;2023-12-20T01:47:36;5.80;99.90
15364;DHT22;7781;49.690;6.472;2023-12-20T01:50:09;5.80;99.90
15364;DHT22;7781;49.690;6.472;2023-12-20T01:52:38;5.80;99.90
15364;DHT22;7781;49.690;6.472;2023-12-20T01:55:07;5.80;99.90
15364;DHT22;7781;49.690;6.472;2023-12-20T01:57:42;5.80;99.90
15364;DHT22;7781;49.690;6.472;2023-12-20T02:00:12;5.80;99.90
15364;DHT22;7781;49.690;6.472;2023-12-20T02:02:41;5.80;99.90
15364;DHT22;7781;49.690;6.472;2023-12-20T02:05:12;5.90;99.90
15364;DHT22;7781;49.690;6.472;2023-12-20T02:07:41;5.80;99.90
15364;DHT22;7781;49.690;6.472;2023-12-20T02:10:11;5.80;99.90
15364;DHT22;7781;49.690;6.472;2023-12-20T02:12:40;5.90;99.90
15364;DHT22;7781;49.690;6.472;2023-12-20T02:15:08;5.90;99.90
15364;DHT22;7781;49.690;6.472;2023-12-20T02:17:38;5.90;99.90
15364;DHT22;7781;49.690;6.472;2023-12-20T02:20:09;5.90;99.90
15364;DHT22;7781;49.690;6.472;2023-12-20T02:22:38;5.90;99.90
15364;DHT22;7781;49.690;6.472;2023-12-20T02:25:07;5.90;99.90
15364;DHT22;7781;49.690;6.472;2023-12-20T02:27:37;5.90;99.90
15364;DHT22;7781;49.690;6.472;2023-12-20T02:30:10;5.90;99.90
15364;DHT22;7781;49.690;6.472;2023-12-20T02:32:40;5.90;99.90
15364;DHT22;7781;49.690;6.472;2023-12-20T02:35:09;5.90;99.90
15364;DHT22;7781;49.690;6.472;2023-12-20T02:37:41;5.90;99.90
15364;DHT22;7781;49.690;6.472;2023-12-20T02:40:10;5.90;99.90
15364;DHT22;7781;49.690;6.472;2023-12-20T02:42:39;5.90;99.90
15364;DHT22;7781;49.690;6.472;2023-12-20T02:45:07;5.90;99.90
15364;DHT22;7781;49.690;6.472;2023-12-20T02:47:38;5.90;99.90
15364;DHT22;7781;49.690;6.472;2023-12-20T02:50:07;5.90;99.90
15364;DHT22;7781;49.690;6.472;2023-12-20T02:52:36;5.90;99.90
15364;DHT22;7781;49.690;6.472;2023-12-20T02:55:07;5.90;99.90
15364;DHT22;7781;49.690;6.472;2023-12-20T02:57:35;5.80;99.90
15364;DHT22;7781;49.690;6.472;2023-12-20T03:00:11;5.80;99.90
15364;DHT22;7781;49.690;6.472;2023-12-20T03:02:39;5.80;99.90
15364;DHT22;7781;49.690;6.472;2023-12-20T03:05:08;5.80;99.90
15364;DHT22;7781;49.690;6.472;2023-12-20T03:07:37;5.80;99.90
15364;DHT22;7781;49.690;6.472;2023-12-20T03:10:08;5.80;99.90
15364;DHT22;7781;49.690;6.472;2023-12-20T03:12:49;5.70;99.90
15364;DHT22;7781;49.690;6.472;2023-12-20T03:15:17;5.70;99.90
15364;DHT22;7781;49.690;6.472;2023-12-20T03:17:46;5.60;99.90
15364;DHT22;7781;49.690;6.472;2023-12-20T03:20:17;5.60;99.90
15364;DHT22;7781;49.690;6.472;2023-12-20T03:22:46;5.60;99.90
15364;DHT22;7781;49.690;6.472;2023-12-20T03:25:16;5.60;99.90
15364;DHT22;7781;49.690;6.472;2023-12-20T03:27:45;5.70;99.90
15364;DHT22;7781;49.690;6.472;2023-12-20T03:30:14;5.80;99.90
15364;DHT22;7781;49.690;6.472;2023-12-20T03:32:46;5.80;99.90
15364;DHT22;7781;49.690;6.472;2023-12-20T03:35:15;5.80;99.90
15364;DHT22;7781;49.690;6.472;2023-12-20T03:37:43;5.60;99.90
15364;DHT22;7781;49.690;6.472;2023-12-20T03:40:12;5.60;99.90
15364;DHT22;7781;49.690;6.472;2023-12-20T03:42:44;5.50;99.90
15364;DHT22;7781;49.690;6.472;2023-12-20T03:45:15;5.40;99.90
15364;DHT22;7781;49.690;6.472;2023-12-20T03:47:44;5.30;99.90
15364;DHT22;7781;49.690;6.472;2023-12-20T03:50:13;5.20;99.90
15364;DHT22;7781;49.690;6.472;2023-12-20T03:52:42;5.20;99.90
15364;DHT22;7781;49.690;6.472;2023-12-20T03:55:10;5.20;99.90
15364;DHT22;7781;49.690;6.472;2023-12-20T03:57:39;5.10;99.90
15364;DHT22;7781;49.690;6.472;2023-12-20T04:00:10;5.00;99.90
15364;DHT22;7781;49.690;6.472;2023-12-20T04:02:41;4.90;99.90
15364;DHT22;7781;49.690;6.472;2023-12-20T04:05:11;4.70;99.90
15364;DHT22;7781;49.690;6.472;2023-12-20T04:07:39;4.60;99.90
15364;DHT22;7781;49.690;6.472;2023-12-20T04:10:09;4.30;99.90
15364;DHT22;7781;49.690;6.472;2023-12-20T04:12:38;4.30;99.90
15364;DHT22;7781;49.690;6.472;2023-12-20T04:15:09;4.20;99.90
15364;DHT22;7781;49.690;6.472;2023-12-20T04:17:41;4.20;99.90
15364;DHT22;7781;49.690;6.472;2023-12-20T04:20:10;4.10;99.90
15364;DHT22;7781;49.690;6.472;2023-12-20T04:22:39;4.10;99.90
15364;DHT22;7781;49.690;6.472;2023-12-20T04:25:08;4.20;99.90
15364;DHT22;7781;49.690;6.472;2023-12-20T04:27:37;4.10;99.90
15364;DHT22;7781;49.690;6.472;2023-12-20T04:30:07;4.10;99.90
15364;DHT22;7781;49.690;6.472;2023-12-20T04:32:37;4.00;99.90
15364;DHT22;7781;49.690;6.472;2023-12-20T04:35:06;4.00;99.90
15364;DHT22;7781;49.690;6.472;2023-12-20T04:37:34;3.90;99.90
15364;DHT22;7781;49.690;6.472;2023-12-20T04:40:03;3.90;99.90
15364;DHT22;7781;49.690;6.472;2023-12-20T04:42:35;3.90;99.90
15364;DHT22;7781;49.690;6.472;2023-12-20T04:45:04;3.90;99.90
15364;DHT22;7781;49.690;6.472;2023-12-20T04:47:33;4.00;99.90
15364;DHT22;7781;49.690;6.472;2023-12-20T04:50:04;4.00;99.90
15364;DHT22;7781;49.690;6.472;2023-12-20T04:52:32;4.00;99.90
15364;DHT22;7781;49.690;6.472;2023-12-20T04:55:01;3.90;99.90
15364;DHT22;7781;49.690;6.472;2023-12-20T04:57:30;3.90;99.90
15364;DHT22;7781;49.690;6.472;2023-12-20T05:00:00;4.00;99.90
15364;DHT22;7781;49.690;6.472;2023-12-20T05:02:29;4.10;99.90
15364;DHT22;7781;49.690;6.472;2023-12-20T05:04:58;4.10;99.90
15364;DHT22;7781;49.690;6.472;2023-12-20T05:07:28;4.10;99.90
15364;DHT22;7781;49.690;6.472;2023-12-20T05:09:57;4.20;99.90
15364;DHT22;7781;49.690;6.472;2023-12-20T05:12:26;4.20;99.90
15364;DHT22;7781;49.690;6.472;2023-12-20T05:14:54;4.30;99.90
15364;DHT22;7781;49.690;6.472;2023-12-20T05:17:24;4.30;99.90
15364;DHT22;7781;49.690;6.472;2023-12-20T05:19:53;4.30;99.90
15364;DHT22;7781;49.690;6.472;2023-12-20T05:22:22;4.30;99.90
15364;DHT22;7781;49.690;6.472;2023-12-20T05:24:52;4.30;99.90
15364;DHT22;7781;49.690;6.472;2023-12-20T05:27:20;4.40;99.90
15364;DHT22;7781;49.690;6.472;2023-12-20T05:29:50;4.50;99.90
15364;DHT22;7781;49.690;6.472;2023-12-20T05:32:20;4.50;99.90
15364;DHT22;7781;49.690;6.472;2023-12-20T05:34:48;4.50;99.90
15364;DHT22;7781;49.690;6.472;2023-12-20T05:37:19;4.50;99.90
15364;DHT22;7781;49.690;6.472;2023-12-20T05:39:48;4.40;99.90
15364;DHT22;7781;49.690;6.472;2023-12-20T05:42:18;4.40;99.90
15364;DHT22;7781;49.690;6.472;2023-12-20T05:44:46;4.50;99.90
15364;DHT22;7781;49.690;6.472;2023-12-20T05:47:18;4.50;99.90
15364;DHT22;7781;49.690;6.472;2023-12-20T05:49:46;4.60;99.90
15364;DHT22;7781;49.690;6.472;2023-12-20T05:52:18;4.60;99.90
15364;DHT22;7781;49.690;6.472;2023-12-20T05:54:48;4.60;99.90
15364;DHT22;7781;49.690;6.472;2023-12-20T05:57:18;4.60;99.90
15364;DHT22;7781;49.690;6.472;2023-12-20T05:59:46;4.60;99.90
15364;DHT22;7781;49.690;6.472;2023-12-20T06:02:15;4.70;99.90
15364;DHT22;7781;49.690;6.472;2023-12-20T06:04:44;4.70;99.90
15364;DHT22;7781;49.690;6.472;2023-12-20T06:07:15;4.70;99.90
15364;DHT22;7781;49.690;6.472;2023-12-20T06:09:43;4.70;99.90
15364;DHT22;7781;49.690;6.472;2023-12-20T06:12:14;4.70;99.90
15364;DHT22;7781;49.690;6.472;2023-12-20T06:14:44;4.80;99.90
15364;DHT22;7781;49.690;6.472;2023-12-20T06:17:13;4.80;99.90
15364;DHT22;7781;49.690;6.472;2023-12-20T06:19:44;4.80;99.90
15364;DHT22;7781;49.690;6.472;2023-12-20T06:22:15;4.80;99.90
15364;DHT22;7781;49.690;6.472;2023-12-20T06:24:44;4.80;99.90
15364;DHT22;7781;49.690;6.472;2023-12-20T06:27:12;4.90;99.90
15364;DHT22;7781;49.690;6.472;2023-12-20T06:29:41;4.80;99.90
15364;DHT22;7781;49.690;6.472;2023-12-20T06:32:13;4.90;99.90
15364;DHT22;7781;49.690;6.472;2023-12-20T06:34:42;4.90;99.90
15364;DHT22;7781;49.690;6.472;2023-12-20T06:37:10;4.90;99.90
15364;DHT22;7781;49.690;6.472;2023-12-20T06:39:39;4.90;99.90
15364;DHT22;7781;49.690;6.472;2023-12-20T06:42:08;4.90;99.90
15364;DHT22;7781;49.690;6.472;2023-12-20T06:44:37;4.90;99.90
15364;DHT22;7781;49.690;6.472;2023-12-20T06:47:06;4.90;99.90
15364;DHT22;7781;49.690;6.472;2023-12-20T06:49:36;4.90;99.90
15364;DHT22;7781;49.690;6.472;2023-12-20T06:52:05;4.90;99.90
15364;DHT22;7781;49.690;6.472;2023-12-20T06:54:33;4.90;99.90
15364;DHT22;7781;49.690;6.472;2023-12-20T06:57:02;4.90;99.90
15364;DHT22;7781;49.690;6.472;2023-12-20T06:59:33;4.90;99.90
15364;DHT22;7781;49.690;6.472;2023-12-20T07:02:03;4.90;99.90
15364;DHT22;7781;49.690;6.472;2023-12-20T07:04:42;4.90;99.90
15364;DHT22;7781;49.690;6.472;2023-12-20T07:07:10;4.90;99.90
15364;DHT22;7781;49.690;6.472;2023-12-20T07:09:41;4.90;99.90
15364;DHT22;7781;49.690;6.472;2023-12-20T07:12:12;4.90;99.90
15364;DHT22;7781;49.690;6.472;2023-12-20T07:14:41;5.00;99.90
15364;DHT22;7781;49.690;6.472;2023-12-20T07:17:09;5.00;99.90
15364;DHT22;7781;49.690;6.472;2023-12-20T07:19:42;5.00;99.90
15364;DHT22;7781;49.690;6.472;2023-12-20T07:22:10;5.00;99.90
15364;DHT22;7781;49.690;6.472;2023-12-20T07:24:39;5.00;99.90
15364;DHT22;7781;49.690;6.472;2023-12-20T07:27:07;5.00;99.90
15364;DHT22;7781;49.690;6.472;2023-12-20T07:29:36;5.00;99.90
15364;DHT22;7781;49.690;6.472;2023-12-20T07:32:05;5.00;99.90
15364;DHT22;7781;49.690;6.472;2023-12-20T07:34:35;5.00;99.90
15364;DHT22;7781;49.690;6.472;2023-12-20T07:37:05;5.00;99.90
15364;DHT22;7781;49.690;6.472;2023-12-20T07:39:37;5.00;99.90
15364;DHT22;7781;49.690;6.472;2023-12-20T07:42:07;5.00;99.90
15364;DHT22;7781;49.690;6.472;2023-12-20T07:44:35;5.00;99.90
15364;DHT22;7781;49.690;6.472;2023-12-20T07:47:04;5.00;99.90
15364;DHT22;7781;49.690;6.472;2023-12-20T07:49:34;5.00;99.90
15364;DHT22;7781;49.690;6.472;2023-12-20T07:52:05;5.00;99.90
15364;DHT22;7781;49.690;6.472;2023-12-20T07:54:36;5.00;99.90
15364;DHT22;7781;49.690;6.472;2023-12-20T07:57:04;5.00;99.90
15364;DHT22;7781;49.690;6.472;2023-12-20T07:59:35;5.00;99.90
15364;DHT22;7781;49.690;6.472;2023-12-20T08:02:06;5.10;99.90
15364;DHT22;7781;49.690;6.472;2023-12-20T08:04:35;5.00;99.90
15364;DHT22;7781;49.690;6.472;2023-12-20T08:07:05;5.00;99.90
15364;DHT22;7781;49.690;6.472;2023-12-20T08:09:34;5.10;99.90
15364;DHT22;7781;49.690;6.472;2023-12-20T08:12:04;5.10;99.90
15364;DHT22;7781;49.690;6.472;2023-12-20T08:14:34;5.00;99.90
15364;DHT22;7781;49.690;6.472;2023-12-20T08:17:03;5.10;99.90
15364;DHT22;7781;49.690;6.472;2023-12-20T08:19:32;5.10;99.90
15364;DHT22;7781;49.690;6.472;2023-12-20T08:22:06;5.10;99.90
15364;DHT22;7781;49.690;6.472;2023-12-20T08:24:35;5.10;99.90
15364;DHT22;7781;49.690;6.472;2023-12-20T08:27:04;5.10;99.90
15364;DHT22;7781;49.690;6.472;2023-12-20T08:29:34;5.10;99.90
15364;DHT22;7781;49.690;6.472;2023-12-20T08:32:03;5.10;99.90
15364;DHT22;7781;49.690;6.472;2023-12-20T08:34:32;5.10;99.90
15364;DHT22;7781;49.690;6.472;2023-12-20T08:37:01;5.10;99.90
15364;DHT22;7781;49.690;6.472;2023-12-20T08:39:33;5.20;99.90
15364;DHT22;7781;49.690;6.472;2023-12-20T08:42:03;5.20;99.90
15364;DHT22;7781;49.690;6.472;2023-12-20T08:44:31;5.20;99.90
15364;DHT22;7781;49.690;6.472;2023-12-20T08:47:00;5.20;99.90
15364;DHT22;7781;49.690;6.472;2023-12-20T08:49:28;5.20;99.90
15364;DHT22;7781;49.690;6.472;2023-12-20T08:51:58;5.20;99.90
15364;DHT22;7781;49.690;6.472;2023-12-20T08:54:27;5.20;99.90
15364;DHT22;7781;49.690;6.472;2023-12-20T08:56:57;5.20;99.90
15364;DHT22;7781;49.690;6.472;2023-12-20T08:59:26;5.20;99.90
15364;DHT22;7781;49.690;6.472;2023-12-20T09:01:54;5.20;99.90
15364;DHT22;7781;49.690;6.472;2023-12-20T09:04:23;5.20;99.90
15364;DHT22;7781;49.690;6.472;2023-12-20T09:06:53;5.30;99.90
15364;DHT22;7781;49.690;6.472;2023-12-20T09:09:23;5.30;99.90
15364;DHT22;7781;49.690;6.472;2023-12-20T09:11:51;5.30;99.90
15364;DHT22;7781;49.690;6.472;2023-12-20T09:14:21;5.30;99.90
15364;DHT22;7781;49.690;6.472;2023-12-20T09:16:51;5.30;99.90
15364;DHT22;7781;49.690;6.472;2023-12-20T09:19:23;5.30;99.90
15364;DHT22;7781;49.690;6.472;2023-12-20T09:21:51;5.40;99.90
15364;DHT22;7781;49.690;6.472;2023-12-20T09:24:22;5.40;99.90
15364;DHT22;7781;49.690;6.472;2023-12-20T09:26:50;5.50;99.90
15364;DHT22;7781;49.690;6.472;2023-12-20T09:29:20;5.50;99.90
15364;DHT22;7781;49.690;6.472;2023-12-20T09:31:49;5.60;99.90
15364;DHT22;7781;49.690;6.472;2023-12-20T09:34:17;5.60;99.90
15364;DHT22;7781;49.690;6.472;2023-12-20T09:36:46;5.60;99.90
15364;DHT22;7781;49.690;6.472;2023-12-20T09:39:15;5.60;99.90
15364;DHT22;7781;49.690;6.472;2023-12-20T09:41:51;5.60;99.90
15364;DHT22;7781;49.690;6.472;2023-12-20T09:44:28;5.60;99.90
15364;DHT22;7781;49.690;6.472;2023-12-20T09:46:57;5.60;99.90
15364;DHT22;7781;49.690;6.472;2023-12-20T09:49:27;5.60;99.90
15364;DHT22;7781;49.690;6.472;2023-12-20T09:52:00;5.60;99.90
15364;DHT22;7781;49.690;6.472;2023-12-20T09:54:29;5.70;99.90
15364;DHT22;7781;49.690;6.472;2023-12-20T09:56:58;5.70;99.90
15364;DHT22;7781;49.690;6.472;2023-12-20T09:59:28;5.70;99.90
15364;DHT22;7781;49.690;6.472;2023-12-20T10:01:57;5.80;99.90
15364;DHT22;7781;49.690;6.472;2023-12-20T10:04:26;5.80;99.90
15364;DHT22;7781;49.690;6.472;2023-12-20T10:06:56;5.90;99.90
15364;DHT22;7781;49.690;6.472;2023-12-20T10:09:31;5.90;99.90
15364;DHT22;7781;49.690;6.472;2023-12-20T10:12:00;6.00;99.90
15364;DHT22;7781;49.690;6.472;2023-12-20T10:14:30;6.10;99.90
15364;DHT22;7781;49.690;6.472;2023-12-20T10:17:27;6.10;99.90
15364;DHT22;7781;49.690;6.472;2023-12-20T10:19:57;6.20;99.90
15364;DHT22;7781;49.690;6.472;2023-12-20T10:22:27;6.20;99.90
15364;DHT22;7781;49.690;6.472;2023-12-20T10:24:58;6.20;99.90
15364;DHT22;7781;49.690;6.472;2023-12-20T10:27:26;6.10;99.90
15364;DHT22;7781;49.690;6.472;2023-12-20T10:29:58;6.10;99.90
15364;DHT22;7781;49.690;6.472;2023-12-20T10:32:27;6.00;99.90
15364;DHT22;7781;49.690;6.472;2023-12-20T10:34:56;6.00;99.90
15364;DHT22;7781;49.690;6.472;2023-12-20T10:37:26;6.00;99.90
15364;DHT22;7781;49.690;6.472;2023-12-20T10:39:55;6.00;99.90
15364;DHT22;7781;49.690;6.472;2023-12-20T10:42:26;6.00;99.90
15364;DHT22;7781;49.690;6.472;2023-12-20T10:44:59;6.00;99.90
15364;DHT22;7781;49.690;6.472;2023-12-20T10:47:29;6.00;99.90
15364;DHT22;7781;49.690;6.472;2023-12-20T10:49:59;6.00;99.90
15364;DHT22;7781;49.690;6.472;2023-12-20T10:52:32;6.00;99.90
15364;DHT22;7781;49.690;6.472;2023-12-20T10:55:03;6.00;99.90
15364;DHT22;7781;49.690;6.472;2023-12-20T10:57:33;6.00;99.90
15364;DHT22;7781;49.690;6.472;2023-12-20T11:00:09;5.90;99.90
15364;DHT22;7781;49.690;6.472;2023-12-20T11:02:44;5.90;99.90
15364;DHT22;7781;49.690;6.472;2023-12-20T11:05:22;5.90;99.90
15364;DHT22;7781;49.690;6.472;2023-12-20T11:08:02;5.90;99.90
15364;DHT22;7781;49.690;6.472;2023-12-20T11:10:43;6.00;99.90
15364;DHT22;7781;49.690;6.472;2023-12-20T11:13:21;5.90;99.90
15364;DHT22;7781;49.690;6.472;2023-12-20T11:15:54;5.90;99.90
15364;DHT22;7781;49.690;6.472;2023-12-20T11:18:28;5.90;99.90
15364;DHT22;7781;49.690;6.472;2023-12-20T11:21:01;5.90;99.90
15364;DHT22;7781;49.690;6.472;2023-12-20T11:23:32;5.90;99.90
15364;DHT22;7781;49.690;6.472;2023-12-20T11:26:04;5.90;99.90
15364;DHT22;7781;49.690;6.472;2023-12-20T11:28:32;6.00;99.90
15364;DHT22;7781;49.690;6.472;2023-12-20T11:31:03;6.00;99.90
15364;DHT22;7781;49.690;6.472;2023-12-20T11:33:36;6.00;99.90
15364;DHT22;7781;49.690;6.472;2023-12-20T11:36:14;6.10;99.90
15364;DHT22;7781;49.690;6.472;2023-12-20T11:38:56;6.20;99.90
15364;DHT22;7781;49.690;6.472;2023-12-20T11:41:29;6.20;99.90
15364;DHT22;7781;49.690;6.472;2023-12-20T11:44:00;6.20;99.90
15364;DHT22;7781;49.690;6.472;2023-12-20T11:46:31;6.20;99.90
15364;DHT22;7781;49.690;6.472;2023-12-20T11:49:00;6.30;99.90
15364;DHT22;7781;49.690;6.472;2023-12-20T11:51:30;6.30;99.90
15364;DHT22;7781;49.690;6.472;2023-12-20T11:53:58;6.20;99.90
15364;DHT22;7781;49.690;6.472;2023-12-20T11:56:27;6.30;99.90
15364;DHT22;7781;49.690;6.472;2023-12-20T11:58:56;6.30;99.90
15364;DHT22;7781;49.690;6.472;2023-12-20T12:01:50;6.30;99.90
15364;DHT22;7781;49.690;6.472;2023-12-20T12:04:19;6.30;99.90
15364;DHT22;7781;49.690;6.472;2023-12-20T12:06:48;6.30;99.90
15364;DHT22;7781;49.690;6.472;2023-12-20T12:09:17;6.30;99.90
15364;DHT22;7781;49.690;6.472;2023-12-20T12:11:45;6.40;99.90
15364;DHT22;7781;49.690;6.472;2023-12-20T12:14:17;6.40;99.90
15364;DHT22;7781;49.690;6.472;2023-12-20T12:16:46;6.40;99.90
15364;DHT22;7781;49.690;6.472;2023-12-20T12:19:25;6.40;99.90
15364;DHT22;7781;49.690;6.472;2023-12-20T12:22:04;6.40;99.90
15364;DHT22;7781;49.690;6.472;2023-12-20T12:24:46;6.50;99.90
15364;DHT22;7781;49.690;6.472;2023-12-20T12:27:34;6.50;99.90
15364;DHT22;7781;49.690;6.472;2023-12-20T12:30:05;6.40;99.90
15364;DHT22;7781;49.690;6.472;2023-12-20T12:32:37;6.40;99.90
15364;DHT22;7781;49.690;6.472;2023-12-20T12:35:09;6.30;99.90
15364;DHT22;7781;49.690;6.472;2023-12-20T12:37:40;6.30;99.90
15364;DHT22;7781;49.690;6.472;2023-12-20T12:40:11;6.30;99.90
15364;DHT22;7781;49.690;6.472;2023-12-20T12:42:41;6.30;99.90
15364;DHT22;7781;49.690;6.472;2023-12-20T12:45:11;6.30;99.90
15364;DHT22;7781;49.690;6.472;2023-12-20T12:47:40;6.40;99.90
15364;DHT22;7781;49.690;6.472;2023-12-20T12:50:10;6.40;99.90
15364;DHT22;7781;49.690;6.472;2023-12-20T12:52:41;6.40;99.90
15364;DHT22;7781;49.690;6.472;2023-12-20T12:55:09;6.40;99.90
15364;DHT22;7781;49.690;6.472;2023-12-20T12:57:38;6.40;99.90
15364;DHT22;7781;49.690;6.472;2023-12-20T13:00:08;6.50;99.90
15364;DHT22;7781;49.690;6.472;2023-12-20T13:02:36;6.40;99.90
15364;DHT22;7781;49.690;6.472;2023-12-20T13:05:10;6.40;99.90
15364;DHT22;7781;49.690;6.472;2023-12-20T13:07:41;6.50;99.90
15364;DHT22;7781;49.690;6.472;2023-12-20T13:10:13;6.50;99.90
15364;DHT22;7781;49.690;6.472;2023-12-20T13:12:43;6.50;99.90
15364;DHT22;7781;49.690;6.472;2023-12-20T13:15:12;6.50;99.90
15364;DHT22;7781;49.690;6.472;2023-12-20T13:17:41;6.50;99.90
15364;DHT22;7781;49.690;6.472;2023-12-20T13:20:11;6.50;99.90
15364;DHT22;7781;49.690;6.472;2023-12-20T13:22:40;6.50;99.90
15364;DHT22;7781;49.690;6.472;2023-12-20T13:25:09;6.50;99.90
15364;DHT22;7781;49.690;6.472;2023-12-20T13:27:39;6.50;99.90
15364;DHT22;7781;49.690;6.472;2023-12-20T13:30:07;6.40;99.90
15364;DHT22;7781;49.690;6.472;2023-12-20T13:32:37;6.50;99.90
15364;DHT22;7781;49.690;6.472;2023-12-20T13:35:06;6.50;99.90
15364;DHT22;7781;49.690;6.472;2023-12-20T13:37:36;6.50;99.90
15364;DHT22;7781;49.690;6.472;2023-12-20T13:40:06;6.50;99.90
15364;DHT22;7781;49.690;6.472;2023-12-20T13:42:34;6.50;99.90
15364;DHT22;7781;49.690;6.472;2023-12-20T13:45:07;6.50;99.90
15364;DHT22;7781;49.690;6.472;2023-12-20T13:47:35;6.50;99.90
15364;DHT22;7781;49.690;6.472;2023-12-20T13:50:05;6.40;99.90
15364;DHT22;7781;49.690;6.472;2023-12-20T13:52:41;6.40;99.90
15364;DHT22;7781;49.690;6.472;2023-12-20T13:55:11;6.50;99.90
15364;DHT22;7781;49.690;6.472;2023-12-20T13:57:40;6.50;99.90
15364;DHT22;7781;49.690;6.472;2023-12-20T14:00:22;6.40;99.90
15364;DHT22;7781;49.690;6.472;2023-12-20T14:02:51;6.40;99.90
15364;DHT22;7781;49.690;6.472;2023-12-20T14:05:19;6.40;99.90
15364;DHT22;7781;49.690;6.472;2023-12-20T14:07:53;6.40;99.90
15364;DHT22;7781;49.690;6.472;2023-12-20T14:10:22;6.40;99.90
15364;DHT22;7781;49.690;6.472;2023-12-20T14:12:50;6.40;99.90
15364;DHT22;7781;49.690;6.472;2023-12-20T14:15:21;6.40;99.90
15364;DHT22;7781;49.690;6.472;2023-12-20T14:17:53;6.40;99.90
15364;DHT22;7781;49.690;6.472;2023-12-20T14:20:22;6.40;99.90
15364;DHT22;7781;49.690;6.472;2023-12-20T14:22:52;6.40;99.90
15364;DHT22;7781;49.690;6.472;2023-12-20T14:25:22;6.40;99.90
15364;DHT22;7781;49.690;6.472;2023-12-20T14:27:53;6.40;99.90
15364;DHT22;7781;49.690;6.472;2023-12-20T14:30:23;6.40;99.90
15364;DHT22;7781;49.690;6.472;2023-12-20T14:32:53;6.40;99.90
15364;DHT22;7781;49.690;6.472;2023-12-20T14:35:22;6.40;99.90
15364;DHT22;7781;49.690;6.472;2023-12-20T14:38:20;6.40;99.90
15364;DHT22;7781;49.690;6.472;2023-12-20T14:40:49;6.40;99.90
15364;DHT22;7781;49.690;6.472;2023-12-20T14:43:18;6.50;99.90
15364;DHT22;7781;49.690;6.472;2023-12-20T14:45:47;6.50;99.90
15364;DHT22;7781;49.690;6.472;2023-12-20T14:48:17;6.50;99.90
15364;DHT22;7781;49.690;6.472;2023-12-20T14:50:48;6.50;99.90
15364;DHT22;7781;49.690;6.472;2023-12-20T14:53:17;6.50;99.90
15364;DHT22;7781;49.690;6.472;2023-12-20T14:55:50;6.50;99.90
15364;DHT22;7781;49.690;6.472;2023-12-20T14:58:21;6.50;99.90
15364;DHT22;7781;49.690;6.472;2023-12-20T15:00:50;6.50;99.90
15364;DHT22;7781;49.690;6.472;2023-12-20T15:03:18;6.50;99.90
15364;DHT22;7781;49.690;6.472;2023-12-20T15:05:47;6.60;99.90
15364;DHT22;7781;49.690;6.472;2023-12-20T15:08:15;6.60;99.90
15364;DHT22;7781;49.690;6.472;2023-12-20T15:10:44;6.50;99.90
15364;DHT22;7781;49.690;6.472;2023-12-20T15:13:14;6.50;99.90
15364;DHT22;7781;49.690;6.472;2023-12-20T15:15:44;6.50;99.90
15364;DHT22;7781;49.690;6.472;2023-12-20T15:18:13;6.50;99.90
15364;DHT22;7781;49.690;6.472;2023-12-20T15:20:42;6.50;99.90
15364;DHT22;7781;49.690;6.472;2023-12-20T15:23:12;6.50;99.90
15364;DHT22;7781;49.690;6.472;2023-12-20T15:25:41;6.50;99.90
15364;DHT22;7781;49.690;6.472;2023-12-20T15:28:11;6.40;99.90
15364;DHT22;7781;49.690;6.472;2023-12-20T15:30:42;6.40;99.90
15364;DHT22;7781;49.690;6.472;2023-12-20T15:33:12;6.40;99.90
15364;DHT22;7781;49.690;6.472;2023-12-20T15:35:40;6.50;99.90
15364;DHT22;7781;49.690;6.472;2023-12-20T15:38:09;6.40;99.90
15364;DHT22;7781;49.690;6.472;2023-12-20T15:40:38;6.40;99.90
15364;DHT22;7781;49.690;6.472;2023-12-20T15:43:08;6.40;99.90
15364;DHT22;7781;49.690;6.472;2023-12-20T15:45:38;6.40;99.90
15364;DHT22;7781;49.690;6.472;2023-12-20T15:48:08;6.40;99.90
15364;DHT22;7781;49.690;6.472;2023-12-20T15:50:42;6.50;99.90
15364;DHT22;7781;49.690;6.472;2023-12-20T15:53:10;6.50;99.90
15364;DHT22;7781;49.690;6.472;2023-12-20T15:55:42;6.50;99.90
15364;DHT22;7781;49.690;6.472;2023-12-20T15:58:10;6.50;99.90
15364;DHT22;7781;49.690;6.472;2023-12-20T16:00:39;6.50;99.90
15364;DHT22;7781;49.690;6.472;2023-12-20T16:03:09;6.60;99.90
15364;DHT22;7781;49.690;6.472;2023-12-20T16:05:52;6.60;99.90
15364;DHT22;7781;49.690;6.472;2023-12-20T16:08:23;6.60;99.90
15364;DHT22;7781;49.690;6.472;2023-12-20T16:10:52;6.60;99.90
15364;DHT22;7781;49.690;6.472;2023-12-20T16:13:21;6.70;99.90
15364;DHT22;7781;49.690;6.472;2023-12-20T16:15:50;6.70;99.90
15364;DHT22;7781;49.690;6.472;2023-12-20T16:18:20;6.70;99.90
15364;DHT22;7781;49.690;6.472;2023-12-20T16:20:50;6.70;99.90